sensor_id;sensor_type;location;lat;lon;timestamp;P1;durP1;ratioP1;P2;durP2;ratioP2
14722;SDS011;7452;55.594;12.986;2023-03-23T00:00:55;26.10;;;19.23;;
14722;SDS011;7452;55.594;12.986;2023-03-23T00:03:22;24.40;;;18.87;;
14722;SDS011;7452;55.594;12.986;2023-03-23T00:05:54;26.03;;;19.57;;
14722;SDS011;7452;55.594;12.986;2023-03-23T00:08:25;24.90;;;20.17;;
14722;SDS011;7452;55.594;12.986;2023-03-23T00:10:52;25.67;;;19.80;;
14722;SDS011;7452;55.594;12.986;2023-03-23T00:13:21;26.47;;;20.30;;
14722;SDS011;7452;55.594;12.986;2023-03-23T00:15:48;27.33;;;20.50;;
14722;SDS011;7452;55.594;12.986;2023-03-23T00:18:17;25.57;;;20.80;;
14722;SDS011;7452;55.594;12.986;2023-03-23T00:20:48;27.13;;;20.80;;
14722;SDS011;7452;55.594;12.986;2023-03-23T00:23:16;25.40;;;20.03;;
14722;SDS011;7452;55.594;12.986;2023-03-23T00:25:47;24.27;;;19.87;;
14722;SDS011;7452;55.594;12.986;2023-03-23T00:28:15;26.83;;;21.63;;
14722;SDS011;7452;55.594;12.986;2023-03-23T00:30:42;27.03;;;20.30;;
14722;SDS011;7452;55.594;12.986;2023-03-23T00:33:09;28.53;;;20.00;;
14722;SDS011;7452;55.594;12.986;2023-03-23T00:35:38;26.87;;;20.33;;
14722;SDS011;7452;55.594;12.986;2023-03-23T00:38:05;27.27;;;19.70;;
14722;SDS011;7452;55.594;12.986;2023-03-23T00:40:33;25.50;;;19.97;;
14722;SDS011;7452;55.594;12.986;2023-03-23T00:43:02;25.57;;;21.03;;
14722;SDS011;7452;55.594;12.986;2023-03-23T00:45:29;29.47;;;21.97;;
14722;SDS011;7452;55.594;12.986;2023-03-23T00:47:59;27.40;;;22.17;;
14722;SDS011;7452;55.594;12.986;2023-03-23T00:50:27;28.07;;;21.97;;
14722;SDS011;7452;55.594;12.986;2023-03-23T00:52:54;31.53;;;22.23;;
14722;SDS011;7452;55.594;12.986;2023-03-23T00:55:23;32.47;;;23.27;;
14722;SDS011;7452;55.594;12.986;2023-03-23T00:57:50;31.73;;;23.60;;
14722;SDS011;7452;55.594;12.986;2023-03-23T01:00:20;30.23;;;23.07;;
14722;SDS011;7452;55.594;12.986;2023-03-23T01:02:48;31.03;;;22.03;;
14722;SDS011;7452;55.594;12.986;2023-03-23T01:05:16;27.23;;;21.23;;
14722;SDS011;7452;55.594;12.986;2023-03-23T01:07:44;30.97;;;22.70;;
14722;SDS011;7452;55.594;12.986;2023-03-23T01:10:12;29.17;;;21.00;;
14722;SDS011;7452;55.594;12.986;2023-03-23T01:12:40;31.30;;;21.67;;
14722;SDS011;7452;55.594;12.986;2023-03-23T01:15:08;30.73;;;20.97;;
14722;SDS011;7452;55.594;12.986;2023-03-23T01:17:40;23.70;;;18.93;;
14722;SDS011;7452;55.594;12.986;2023-03-23T01:20:07;27.70;;;19.57;;
14722;SDS011;7452;55.594;12.986;2023-03-23T01:22:35;24.17;;;17.93;;
14722;SDS011;7452;55.594;12.986;2023-03-23T01:25:02;26.03;;;17.93;;
14722;SDS011;7452;55.594;12.986;2023-03-23T01:27:30;22.63;;;17.20;;
14722;SDS011;7452;55.594;12.986;2023-03-23T01:29:57;23.53;;;17.27;;
14722;SDS011;7452;55.594;12.986;2023-03-23T01:32:24;22.60;;;17.47;;
14722;SDS011;7452;55.594;12.986;2023-03-23T01:34:52;20.67;;;15.90;;
14722;SDS011;7452;55.594;12.986;2023-03-23T01:37:19;21.57;;;16.70;;
14722;SDS011;7452;55.594;12.986;2023-03-23T01:39:50;25.33;;;18.17;;
14722;SDS011;7452;55.594;12.986;2023-03-23T01:42:18;24.90;;;17.33;;
14722;SDS011;7452;55.594;12.986;2023-03-23T01:47:48;21.10;;;17.00;;
14722;SDS011;7452;55.594;12.986;2023-03-23T01:50:19;22.47;;;16.97;;
14722;SDS011;7452;55.594;12.986;2023-03-23T01:52:49;22.93;;;17.43;;
14722;SDS011;7452;55.594;12.986;2023-03-23T01:55:17;22.53;;;17.70;;
14722;SDS011;7452;55.594;12.986;2023-03-23T01:57:45;21.87;;;17.13;;
14722;SDS011;7452;55.594;12.986;2023-03-23T02:00:14;23.63;;;16.97;;
14722;SDS011;7452;55.594;12.986;2023-03-23T02:02:41;22.93;;;16.57;;
14722;SDS011;7452;55.594;12.986;2023-03-23T02:05:12;23.07;;;16.87;;
14722;SDS011;7452;55.594;12.986;2023-03-23T02:07:43;19.37;;;15.90;;
14722;SDS011;7452;55.594;12.986;2023-03-23T02:10:11;20.33;;;16.13;;
14722;SDS011;7452;55.594;12.986;2023-03-23T02:12:38;22.57;;;16.67;;
14722;SDS011;7452;55.594;12.986;2023-03-23T02:15:05;23.27;;;16.87;;
14722;SDS011;7452;55.594;12.986;2023-03-23T02:17:34;22.33;;;16.37;;
14722;SDS011;7452;55.594;12.986;2023-03-23T02:20:13;21.67;;;16.90;;
14722;SDS011;7452;55.594;12.986;2023-03-23T02:23:04;22.87;;;17.00;;
14722;SDS011;7452;55.594;12.986;2023-03-23T02:26:09;21.60;;;17.30;;
14722;SDS011;7452;55.594;12.986;2023-03-23T02:28:51;23.63;;;17.00;;
14722;SDS011;7452;55.594;12.986;2023-03-23T02:31:43;30.23;;;18.77;;
14722;SDS011;7452;55.594;12.986;2023-03-23T02:34:21;24.90;;;17.60;;
14722;SDS011;7452;55.594;12.986;2023-03-23T02:36:56;25.30;;;17.60;;
14722;SDS011;7452;55.594;12.986;2023-03-23T02:39:28;23.87;;;17.97;;
14722;SDS011;7452;55.594;12.986;2023-03-23T02:41:59;27.03;;;17.80;;
14722;SDS011;7452;55.594;12.986;2023-03-23T02:44:30;27.47;;;18.60;;
14722;SDS011;7452;55.594;12.986;2023-03-23T02:47:00;24.93;;;18.27;;
14722;SDS011;7452;55.594;12.986;2023-03-23T02:49:32;26.23;;;18.20;;
14722;SDS011;7452;55.594;12.986;2023-03-23T02:52:02;26.60;;;18.30;;
14722;SDS011;7452;55.594;12.986;2023-03-23T02:54:34;27.37;;;19.50;;
14722;SDS011;7452;55.594;12.986;2023-03-23T02:57:02;23.77;;;18.60;;
14722;SDS011;7452;55.594;12.986;2023-03-23T02:59:29;30.53;;;20.40;;
14722;SDS011;7452;55.594;12.986;2023-03-23T03:01:58;30.70;;;19.50;;
14722;SDS011;7452;55.594;12.986;2023-03-23T03:04:31;25.57;;;19.20;;
14722;SDS011;7452;55.594;12.986;2023-03-23T03:09:56;29.23;;;19.87;;
14722;SDS011;7452;55.594;12.986;2023-03-23T03:12:31;30.37;;;20.63;;
14722;SDS011;7452;55.594;12.986;2023-03-23T03:15:06;29.33;;;21.23;;
14722;SDS011;7452;55.594;12.986;2023-03-23T03:17:40;27.90;;;19.90;;
14722;SDS011;7452;55.594;12.986;2023-03-23T03:20:10;30.00;;;20.53;;
14722;SDS011;7452;55.594;12.986;2023-03-23T03:22:39;28.07;;;20.00;;
14722;SDS011;7452;55.594;12.986;2023-03-23T03:25:09;29.13;;;20.73;;
14722;SDS011;7452;55.594;12.986;2023-03-23T03:27:39;29.60;;;21.07;;
14722;SDS011;7452;55.594;12.986;2023-03-23T03:30:08;28.13;;;20.57;;
14722;SDS011;7452;55.594;12.986;2023-03-23T03:32:40;30.20;;;20.83;;
14722;SDS011;7452;55.594;12.986;2023-03-23T03:35:13;30.50;;;21.30;;
14722;SDS011;7452;55.594;12.986;2023-03-23T03:37:40;27.50;;;20.83;;
14722;SDS011;7452;55.594;12.986;2023-03-23T03:40:08;30.17;;;20.87;;
14722;SDS011;7452;55.594;12.986;2023-03-23T03:42:37;25.53;;;20.23;;
14722;SDS011;7452;55.594;12.986;2023-03-23T03:45:05;28.40;;;20.07;;
14722;SDS011;7452;55.594;12.986;2023-03-23T03:47:34;28.90;;;20.93;;
14722;SDS011;7452;55.594;12.986;2023-03-23T03:50:01;28.30;;;20.43;;
14722;SDS011;7452;55.594;12.986;2023-03-23T03:52:29;24.93;;;19.60;;
14722;SDS011;7452;55.594;12.986;2023-03-23T03:54:56;29.40;;;19.90;;
14722;SDS011;7452;55.594;12.986;2023-03-23T03:57:24;29.10;;;20.33;;
14722;SDS011;7452;55.594;12.986;2023-03-23T03:59:51;24.70;;;19.17;;
14722;SDS011;7452;55.594;12.986;2023-03-23T04:02:18;26.30;;;19.93;;
14722;SDS011;7452;55.594;12.986;2023-03-23T04:04:46;26.67;;;19.43;;
14722;SDS011;7452;55.594;12.986;2023-03-23T04:07:13;27.87;;;19.13;;
14722;SDS011;7452;55.594;12.986;2023-03-23T04:09:42;23.77;;;18.23;;
14722;SDS011;7452;55.594;12.986;2023-03-23T04:12:11;22.77;;;18.60;;
14722;SDS011;7452;55.594;12.986;2023-03-23T04:14:38;25.13;;;17.37;;
14722;SDS011;7452;55.594;12.986;2023-03-23T04:17:05;23.77;;;17.97;;
14722;SDS011;7452;55.594;12.986;2023-03-23T04:19:34;23.30;;;17.53;;
14722;SDS011;7452;55.594;12.986;2023-03-23T04:22:01;26.50;;;19.33;;
14722;SDS011;7452;55.594;12.986;2023-03-23T04:24:29;26.97;;;19.47;;
14722;SDS011;7452;55.594;12.986;2023-03-23T04:26:58;25.00;;;19.17;;
14722;SDS011;7452;55.594;12.986;2023-03-23T04:29:26;26.70;;;19.80;;
14722;SDS011;7452;55.594;12.986;2023-03-23T04:31:53;27.00;;;20.27;;
14722;SDS011;7452;55.594;12.986;2023-03-23T04:34:20;29.47;;;20.70;;
14722;SDS011;7452;55.594;12.986;2023-03-23T04:36:48;30.83;;;21.10;;
14722;SDS011;7452;55.594;12.986;2023-03-23T04:39:15;27.60;;;20.70;;
14722;SDS011;7452;55.594;12.986;2023-03-23T04:41:43;31.53;;;21.83;;
14722;SDS011;7452;55.594;12.986;2023-03-23T04:44:12;26.37;;;20.50;;
14722;SDS011;7452;55.594;12.986;2023-03-23T04:46:42;29.73;;;21.67;;
14722;SDS011;7452;55.594;12.986;2023-03-23T04:49:14;29.33;;;20.50;;
14722;SDS011;7452;55.594;12.986;2023-03-23T04:51:45;26.10;;;18.60;;
14722;SDS011;7452;55.594;12.986;2023-03-23T04:54:13;27.30;;;19.63;;
14722;SDS011;7452;55.594;12.986;2023-03-23T04:56:40;26.73;;;19.03;;
14722;SDS011;7452;55.594;12.986;2023-03-23T04:59:07;28.47;;;18.43;;
14722;SDS011;7452;55.594;12.986;2023-03-23T05:01:35;24.80;;;18.83;;
14722;SDS011;7452;55.594;12.986;2023-03-23T05:04:03;28.90;;;19.87;;
14722;SDS011;7452;55.594;12.986;2023-03-23T05:06:30;29.67;;;20.40;;
14722;SDS011;7452;55.594;12.986;2023-03-23T05:08:57;27.10;;;19.57;;
14722;SDS011;7452;55.594;12.986;2023-03-23T05:11:24;27.47;;;20.17;;
14722;SDS011;7452;55.594;12.986;2023-03-23T05:13:51;31.17;;;20.77;;
14722;SDS011;7452;55.594;12.986;2023-03-23T05:16:18;29.23;;;20.43;;
14722;SDS011;7452;55.594;12.986;2023-03-23T05:18:46;29.27;;;21.43;;
14722;SDS011;7452;55.594;12.986;2023-03-23T05:21:13;25.90;;;19.63;;
14722;SDS011;7452;55.594;12.986;2023-03-23T05:23:40;27.53;;;20.53;;
14722;SDS011;7452;55.594;12.986;2023-03-23T05:26:07;26.37;;;19.70;;
14722;SDS011;7452;55.594;12.986;2023-03-23T05:28:34;26.07;;;19.67;;
14722;SDS011;7452;55.594;12.986;2023-03-23T05:31:02;28.87;;;19.80;;
14722;SDS011;7452;55.594;12.986;2023-03-23T05:33:29;28.70;;;19.00;;
14722;SDS011;7452;55.594;12.986;2023-03-23T05:35:58;27.23;;;19.80;;
14722;SDS011;7452;55.594;12.986;2023-03-23T05:38:25;21.80;;;17.50;;
14722;SDS011;7452;55.594;12.986;2023-03-23T05:40:53;24.03;;;17.53;;
14722;SDS011;7452;55.594;12.986;2023-03-23T05:43:19;21.70;;;16.73;;
14722;SDS011;7452;55.594;12.986;2023-03-23T05:45:46;23.27;;;16.63;;
14722;SDS011;7452;55.594;12.986;2023-03-23T05:48:13;23.37;;;16.47;;
14722;SDS011;7452;55.594;12.986;2023-03-23T05:50:40;21.13;;;16.30;;
14722;SDS011;7452;55.594;12.986;2023-03-23T05:53:09;20.83;;;15.90;;
14722;SDS011;7452;55.594;12.986;2023-03-23T05:55:36;21.03;;;16.10;;
14722;SDS011;7452;55.594;12.986;2023-03-23T05:58:03;22.70;;;16.73;;
14722;SDS011;7452;55.594;12.986;2023-03-23T06:00:29;20.90;;;15.63;;
14722;SDS011;7452;55.594;12.986;2023-03-23T06:02:57;22.93;;;16.23;;
14722;SDS011;7452;55.594;12.986;2023-03-23T06:05:26;21.17;;;15.63;;
14722;SDS011;7452;55.594;12.986;2023-03-23T06:07:54;23.03;;;15.63;;
14722;SDS011;7452;55.594;12.986;2023-03-23T06:10:22;17.83;;;15.07;;
14722;SDS011;7452;55.594;12.986;2023-03-23T06:12:49;22.60;;;15.83;;
14722;SDS011;7452;55.594;12.986;2023-03-23T06:15:17;18.93;;;14.97;;
14722;SDS011;7452;55.594;12.986;2023-03-23T06:17:45;19.43;;;15.60;;
14722;SDS011;7452;55.594;12.986;2023-03-23T06:20:12;18.83;;;14.10;;
14722;SDS011;7452;55.594;12.986;2023-03-23T06:22:39;19.33;;;13.67;;
14722;SDS011;7452;55.594;12.986;2023-03-23T06:25:06;20.53;;;15.33;;
14722;SDS011;7452;55.594;12.986;2023-03-23T06:27:37;20.93;;;15.00;;
14722;SDS011;7452;55.594;12.986;2023-03-23T06:30:05;18.47;;;15.00;;
14722;SDS011;7452;55.594;12.986;2023-03-23T06:32:32;19.00;;;14.77;;
14722;SDS011;7452;55.594;12.986;2023-03-23T06:35:00;18.67;;;13.70;;
14722;SDS011;7452;55.594;12.986;2023-03-23T06:37:28;17.07;;;13.17;;
14722;SDS011;7452;55.594;12.986;2023-03-23T06:39:55;17.60;;;13.97;;
14722;SDS011;7452;55.594;12.986;2023-03-23T06:42:22;17.13;;;12.27;;
14722;SDS011;7452;55.594;12.986;2023-03-23T06:44:51;19.50;;;12.93;;
14722;SDS011;7452;55.594;12.986;2023-03-23T06:47:21;15.63;;;11.47;;
14722;SDS011;7452;55.594;12.986;2023-03-23T06:49:48;15.70;;;11.20;;
14722;SDS011;7452;55.594;12.986;2023-03-23T06:52:15;11.13;;;8.43;;
14722;SDS011;7452;55.594;12.986;2023-03-23T06:54:42;9.23;;;7.73;;
14722;SDS011;7452;55.594;12.986;2023-03-23T06:57:09;9.73;;;7.13;;
14722;SDS011;7452;55.594;12.986;2023-03-23T06:59:36;10.27;;;7.17;;
14722;SDS011;7452;55.594;12.986;2023-03-23T07:02:05;7.97;;;5.30;;
14722;SDS011;7452;55.594;12.986;2023-03-23T07:04:32;5.70;;;4.47;;
14722;SDS011;7452;55.594;12.986;2023-03-23T07:06:59;8.37;;;4.20;;
14722;SDS011;7452;55.594;12.986;2023-03-23T07:09:26;4.97;;;3.70;;
14722;SDS011;7452;55.594;12.986;2023-03-23T07:11:53;3.83;;;3.27;;
14722;SDS011;7452;55.594;12.986;2023-03-23T07:14:20;3.73;;;2.57;;
14722;SDS011;7452;55.594;12.986;2023-03-23T07:16:48;6.40;;;3.20;;
14722;SDS011;7452;55.594;12.986;2023-03-23T07:19:16;4.57;;;2.83;;
14722;SDS011;7452;55.594;12.986;2023-03-23T07:21:43;3.40;;;3.00;;
14722;SDS011;7452;55.594;12.986;2023-03-23T07:24:10;4.60;;;2.60;;
14722;SDS011;7452;55.594;12.986;2023-03-23T07:26:38;6.03;;;3.20;;
14722;SDS011;7452;55.594;12.986;2023-03-23T07:29:06;6.10;;;3.00;;
14722;SDS011;7452;55.594;12.986;2023-03-23T07:31:33;4.67;;;2.80;;
14722;SDS011;7452;55.594;12.986;2023-03-23T07:34:01;3.23;;;2.80;;
14722;SDS011;7452;55.594;12.986;2023-03-23T07:36:30;3.73;;;2.67;;
14722;SDS011;7452;55.594;12.986;2023-03-23T07:38:57;4.30;;;2.70;;
14722;SDS011;7452;55.594;12.986;2023-03-23T07:41:24;3.20;;;2.43;;
14722;SDS011;7452;55.594;12.986;2023-03-23T07:43:51;4.17;;;2.57;;
14722;SDS011;7452;55.594;12.986;2023-03-23T07:46:18;3.83;;;3.00;;
14722;SDS011;7452;55.594;12.986;2023-03-23T07:48:46;4.13;;;3.37;;
14722;SDS011;7452;55.594;12.986;2023-03-23T07:51:13;5.37;;;3.47;;
14722;SDS011;7452;55.594;12.986;2023-03-23T07:53:42;3.97;;;3.23;;
14722;SDS011;7452;55.594;12.986;2023-03-23T07:56:11;3.83;;;3.40;;
14722;SDS011;7452;55.594;12.986;2023-03-23T07:58:39;5.80;;;3.80;;
14722;SDS011;7452;55.594;12.986;2023-03-23T08:01:06;5.77;;;3.70;;
14722;SDS011;7452;55.594;12.986;2023-03-23T08:03:33;4.40;;;3.50;;
14722;SDS011;7452;55.594;12.986;2023-03-23T08:06:00;7.57;;;3.40;;
14722;SDS011;7452;55.594;12.986;2023-03-23T08:08:27;4.73;;;3.70;;
14722;SDS011;7452;55.594;12.986;2023-03-23T08:10:56;5.67;;;3.60;;
14722;SDS011;7452;55.594;12.986;2023-03-23T08:13:24;3.23;;;2.67;;
14722;SDS011;7452;55.594;12.986;2023-03-23T08:15:51;3.67;;;2.50;;
14722;SDS011;7452;55.594;12.986;2023-03-23T08:18:18;4.07;;;3.07;;
14722;SDS011;7452;55.594;12.986;2023-03-23T08:20:44;4.13;;;2.47;;
14722;SDS011;7452;55.594;12.986;2023-03-23T08:23:11;4.63;;;2.80;;
14722;SDS011;7452;55.594;12.986;2023-03-23T08:25:40;3.13;;;2.40;;
14722;SDS011;7452;55.594;12.986;2023-03-23T08:28:09;2.97;;;2.53;;
14722;SDS011;7452;55.594;12.986;2023-03-23T08:30:39;3.17;;;2.33;;
14722;SDS011;7452;55.594;12.986;2023-03-23T08:33:07;4.40;;;2.60;;
14722;SDS011;7452;55.594;12.986;2023-03-23T08:35:36;4.20;;;3.07;;
14722;SDS011;7452;55.594;12.986;2023-03-23T08:38:04;4.60;;;3.20;;
14722;SDS011;7452;55.594;12.986;2023-03-23T08:40:31;4.70;;;3.17;;
14722;SDS011;7452;55.594;12.986;2023-03-23T08:42:58;4.60;;;2.77;;
14722;SDS011;7452;55.594;12.986;2023-03-23T08:45:26;4.50;;;2.47;;
14722;SDS011;7452;55.594;12.986;2023-03-23T08:47:53;3.00;;;2.50;;
14722;SDS011;7452;55.594;12.986;2023-03-23T08:50:22;3.00;;;2.10;;
14722;SDS011;7452;55.594;12.986;2023-03-23T08:52:50;2.33;;;1.97;;
14722;SDS011;7452;55.594;12.986;2023-03-23T08:55:18;2.37;;;1.80;;
14722;SDS011;7452;55.594;12.986;2023-03-23T08:57:45;4.13;;;2.00;;
14722;SDS011;7452;55.594;12.986;2023-03-23T09:00:13;3.13;;;1.70;;
14722;SDS011;7452;55.594;12.986;2023-03-23T09:02:45;3.60;;;1.83;;
14722;SDS011;7452;55.594;12.986;2023-03-23T09:05:13;3.80;;;1.97;;
14722;SDS011;7452;55.594;12.986;2023-03-23T09:07:42;2.40;;;1.70;;
14722;SDS011;7452;55.594;12.986;2023-03-23T09:10:11;2.10;;;1.83;;
14722;SDS011;7452;55.594;12.986;2023-03-23T09:12:39;3.63;;;2.20;;
14722;SDS011;7452;55.594;12.986;2023-03-23T09:15:07;3.80;;;2.13;;
14722;SDS011;7452;55.594;12.986;2023-03-23T09:17:37;2.83;;;1.80;;
14722;SDS011;7452;55.594;12.986;2023-03-23T09:20:10;2.07;;;1.63;;
14722;SDS011;7452;55.594;12.986;2023-03-23T09:22:39;1.93;;;1.63;;
14722;SDS011;7452;55.594;12.986;2023-03-23T09:25:08;4.43;;;1.47;;
14722;SDS011;7452;55.594;12.986;2023-03-23T09:27:35;2.07;;;1.50;;
14722;SDS011;7452;55.594;12.986;2023-03-23T09:30:04;1.93;;;1.60;;
14722;SDS011;7452;55.594;12.986;2023-03-23T09:32:33;3.40;;;1.50;;
14722;SDS011;7452;55.594;12.986;2023-03-23T09:35:01;3.20;;;1.77;;
14722;SDS011;7452;55.594;12.986;2023-03-23T09:37:30;3.10;;;1.90;;
14722;SDS011;7452;55.594;12.986;2023-03-23T09:39:58;2.63;;;1.90;;
14722;SDS011;7452;55.594;12.986;2023-03-23T09:42:29;3.23;;;1.70;;
14722;SDS011;7452;55.594;12.986;2023-03-23T09:45:07;1.73;;;1.47;;
14722;SDS011;7452;55.594;12.986;2023-03-23T09:47:43;2.73;;;1.40;;
14722;SDS011;7452;55.594;12.986;2023-03-23T09:50:16;3.20;;;1.40;;
14722;SDS011;7452;55.594;12.986;2023-03-23T09:52:48;2.57;;;1.70;;
14722;SDS011;7452;55.594;12.986;2023-03-23T09:55:19;2.20;;;1.50;;
14722;SDS011;7452;55.594;12.986;2023-03-23T09:57:49;2.10;;;1.67;;
14722;SDS011;7452;55.594;12.986;2023-03-23T10:00:21;3.07;;;1.70;;
14722;SDS011;7452;55.594;12.986;2023-03-23T10:02:52;2.77;;;1.80;;
14722;SDS011;7452;55.594;12.986;2023-03-23T10:05:29;2.83;;;1.80;;
14722;SDS011;7452;55.594;12.986;2023-03-23T10:08:00;3.20;;;2.03;;
14722;SDS011;7452;55.594;12.986;2023-03-23T10:10:31;5.33;;;2.70;;
14722;SDS011;7452;55.594;12.986;2023-03-23T10:13:07;4.03;;;3.17;;
14722;SDS011;7452;55.594;12.986;2023-03-23T10:15:42;6.03;;;3.77;;
14722;SDS011;7452;55.594;12.986;2023-03-23T10:18:14;6.43;;;4.80;;
14722;SDS011;7452;55.594;12.986;2023-03-23T10:20:46;8.53;;;5.17;;
14722;SDS011;7452;55.594;12.986;2023-03-23T10:26:21;7.93;;;6.13;;
14722;SDS011;7452;55.594;12.986;2023-03-23T10:28:59;9.47;;;6.30;;
14722;SDS011;7452;55.594;12.986;2023-03-23T10:31:36;9.60;;;6.40;;
14722;SDS011;7452;55.594;12.986;2023-03-23T10:34:08;9.53;;;6.93;;
14722;SDS011;7452;55.594;12.986;2023-03-23T10:36:40;11.07;;;7.67;;
14722;SDS011;7452;55.594;12.986;2023-03-23T10:39:20;8.53;;;6.40;;
14722;SDS011;7452;55.594;12.986;2023-03-23T10:41:49;7.23;;;5.77;;
14722;SDS011;7452;55.594;12.986;2023-03-23T10:44:18;7.63;;;5.53;;
14722;SDS011;7452;55.594;12.986;2023-03-23T10:46:48;7.57;;;5.53;;
14722;SDS011;7452;55.594;12.986;2023-03-23T10:49:22;6.30;;;5.33;;
14722;SDS011;7452;55.594;12.986;2023-03-23T10:51:53;7.70;;;6.10;;
14722;SDS011;7452;55.594;12.986;2023-03-23T10:54:31;8.00;;;7.03;;
14722;SDS011;7452;55.594;12.986;2023-03-23T10:57:00;8.83;;;7.30;;
14722;SDS011;7452;55.594;12.986;2023-03-23T10:59:28;8.37;;;7.47;;
14722;SDS011;7452;55.594;12.986;2023-03-23T11:02:00;9.00;;;8.00;;
14722;SDS011;7452;55.594;12.986;2023-03-23T11:04:29;9.30;;;7.67;;
14722;SDS011;7452;55.594;12.986;2023-03-23T11:06:58;9.77;;;8.40;;
14722;SDS011;7452;55.594;12.986;2023-03-23T11:09:35;7.73;;;7.03;;
14722;SDS011;7452;55.594;12.986;2023-03-23T11:12:03;9.10;;;6.70;;
14722;SDS011;7452;55.594;12.986;2023-03-23T11:14:31;7.20;;;6.33;;
14722;SDS011;7452;55.594;12.986;2023-03-23T11:17:04;5.90;;;5.27;;
14722;SDS011;7452;55.594;12.986;2023-03-23T11:19:45;6.80;;;5.17;;
14722;SDS011;7452;55.594;12.986;2023-03-23T11:22:15;5.90;;;4.90;;
14722;SDS011;7452;55.594;12.986;2023-03-23T11:24:47;5.63;;;4.37;;
14722;SDS011;7452;55.594;12.986;2023-03-23T11:27:20;5.80;;;5.07;;
14722;SDS011;7452;55.594;12.986;2023-03-23T11:29:49;7.23;;;4.60;;
14722;SDS011;7452;55.594;12.986;2023-03-23T11:32:18;5.43;;;4.00;;
14722;SDS011;7452;55.594;12.986;2023-03-23T11:34:48;5.07;;;3.87;;
14722;SDS011;7452;55.594;12.986;2023-03-23T11:37:24;6.20;;;3.93;;
14722;SDS011;7452;55.594;12.986;2023-03-23T11:39:57;5.00;;;3.80;;
14722;SDS011;7452;55.594;12.986;2023-03-23T11:42:26;5.80;;;4.00;;
14722;SDS011;7452;55.594;12.986;2023-03-23T11:45:12;5.47;;;3.80;;
14722;SDS011;7452;55.594;12.986;2023-03-23T11:47:43;8.17;;;3.43;;
14722;SDS011;7452;55.594;12.986;2023-03-23T11:50:20;5.83;;;3.07;;
14722;SDS011;7452;55.594;12.986;2023-03-23T11:52:52;4.27;;;2.97;;
14722;SDS011;7452;55.594;12.986;2023-03-23T11:55:26;4.47;;;2.37;;
14722;SDS011;7452;55.594;12.986;2023-03-23T11:57:56;6.30;;;2.33;;
14722;SDS011;7452;55.594;12.986;2023-03-23T12:00:28;5.27;;;2.27;;
14722;SDS011;7452;55.594;12.986;2023-03-23T12:05:56;4.10;;;1.70;;
14722;SDS011;7452;55.594;12.986;2023-03-23T12:08:35;3.90;;;1.60;;
14722;SDS011;7452;55.594;12.986;2023-03-23T12:11:24;3.43;;;1.50;;
14722;SDS011;7452;55.594;12.986;2023-03-23T12:14:09;4.77;;;1.63;;
14722;SDS011;7452;55.594;12.986;2023-03-23T12:16:46;6.17;;;2.00;;
14722;SDS011;7452;55.594;12.986;2023-03-23T12:19:20;4.90;;;1.67;;
14722;SDS011;7452;55.594;12.986;2023-03-23T12:21:55;5.20;;;2.07;;
14722;SDS011;7452;55.594;12.986;2023-03-23T12:24:34;6.10;;;1.80;;
14722;SDS011;7452;55.594;12.986;2023-03-23T12:27:12;6.57;;;1.90;;
14722;SDS011;7452;55.594;12.986;2023-03-23T12:32:50;6.50;;;2.30;;
14722;SDS011;7452;55.594;12.986;2023-03-23T12:35:38;7.10;;;2.33;;
14722;SDS011;7452;55.594;12.986;2023-03-23T12:38:25;6.60;;;2.50;;
14722;SDS011;7452;55.594;12.986;2023-03-23T12:41:15;10.53;;;2.53;;
14722;SDS011;7452;55.594;12.986;2023-03-23T12:43:48;8.90;;;2.57;;
14722;SDS011;7452;55.594;12.986;2023-03-23T12:46:22;11.60;;;2.90;;
14722;SDS011;7452;55.594;12.986;2023-03-23T12:49:12;7.37;;;2.63;;
14722;SDS011;7452;55.594;12.986;2023-03-23T12:51:44;6.63;;;2.27;;
14722;SDS011;7452;55.594;12.986;2023-03-23T12:54:16;8.13;;;2.20;;
14722;SDS011;7452;55.594;12.986;2023-03-23T12:56:49;9.67;;;2.60;;
14722;SDS011;7452;55.594;12.986;2023-03-23T12:59:25;8.77;;;2.60;;
14722;SDS011;7452;55.594;12.986;2023-03-23T13:02:01;8.47;;;2.73;;
14722;SDS011;7452;55.594;12.986;2023-03-23T13:04:35;7.00;;;2.27;;
14722;SDS011;7452;55.594;12.986;2023-03-23T13:07:05;9.13;;;2.57;;
14722;SDS011;7452;55.594;12.986;2023-03-23T13:09:40;8.93;;;2.60;;
14722;SDS011;7452;55.594;12.986;2023-03-23T13:12:14;10.63;;;2.87;;
14722;SDS011;7452;55.594;12.986;2023-03-23T13:14:45;8.57;;;2.50;;
14722;SDS011;7452;55.594;12.986;2023-03-23T13:17:25;10.07;;;2.70;;
14722;SDS011;7452;55.594;12.986;2023-03-23T13:22:56;8.40;;;2.60;;
14722;SDS011;7452;55.594;12.986;2023-03-23T13:25:37;8.63;;;2.63;;
14722;SDS011;7452;55.594;12.986;2023-03-23T13:28:14;7.47;;;2.53;;
14722;SDS011;7452;55.594;12.986;2023-03-23T13:30:53;12.00;;;3.20;;
14722;SDS011;7452;55.594;12.986;2023-03-23T13:33:25;10.33;;;2.80;;
14722;SDS011;7452;55.594;12.986;2023-03-23T13:35:55;8.53;;;2.90;;
14722;SDS011;7452;55.594;12.986;2023-03-23T13:38:23;10.23;;;3.07;;
14722;SDS011;7452;55.594;12.986;2023-03-23T13:40:53;9.43;;;2.70;;
14722;SDS011;7452;55.594;12.986;2023-03-23T13:43:25;12.67;;;3.07;;
14722;SDS011;7452;55.594;12.986;2023-03-23T13:46:06;10.87;;;2.93;;
14722;SDS011;7452;55.594;12.986;2023-03-23T13:48:40;9.80;;;3.20;;
14722;SDS011;7452;55.594;12.986;2023-03-23T13:51:23;8.87;;;2.63;;
14722;SDS011;7452;55.594;12.986;2023-03-23T13:56:55;8.97;;;3.00;;
14722;SDS011;7452;55.594;12.986;2023-03-23T13:59:34;12.40;;;3.07;;
14722;SDS011;7452;55.594;12.986;2023-03-23T14:02:27;10.00;;;2.77;;
14722;SDS011;7452;55.594;12.986;2023-03-23T14:05:08;12.90;;;3.40;;
14722;SDS011;7452;55.594;12.986;2023-03-23T14:10:31;10.87;;;2.97;;
14722;SDS011;7452;55.594;12.986;2023-03-23T14:13:03;11.50;;;3.33;;
14722;SDS011;7452;55.594;12.986;2023-03-23T14:15:40;11.67;;;3.40;;
14722;SDS011;7452;55.594;12.986;2023-03-23T14:18:14;10.43;;;2.77;;
14722;SDS011;7452;55.594;12.986;2023-03-23T14:20:42;12.00;;;3.17;;
14722;SDS011;7452;55.594;12.986;2023-03-23T14:23:15;10.30;;;3.10;;
14722;SDS011;7452;55.594;12.986;2023-03-23T14:25:43;11.13;;;3.27;;
14722;SDS011;7452;55.594;12.986;2023-03-23T14:28:20;12.30;;;3.50;;
14722;SDS011;7452;55.594;12.986;2023-03-23T14:30:47;8.90;;;2.93;;
14722;SDS011;7452;55.594;12.986;2023-03-23T14:33:20;10.77;;;3.20;;
14722;SDS011;7452;55.594;12.986;2023-03-23T14:35:47;9.43;;;3.03;;
14722;SDS011;7452;55.594;12.986;2023-03-23T14:38:15;9.63;;;3.03;;
14722;SDS011;7452;55.594;12.986;2023-03-23T14:40:45;14.50;;;3.70;;
14722;SDS011;7452;55.594;12.986;2023-03-23T14:43:13;14.10;;;3.43;;
14722;SDS011;7452;55.594;12.986;2023-03-23T14:45:43;12.77;;;3.33;;
14722;SDS011;7452;55.594;12.986;2023-03-23T14:48:12;8.93;;;2.77;;
14722;SDS011;7452;55.594;12.986;2023-03-23T14:50:48;10.43;;;3.30;;
14722;SDS011;7452;55.594;12.986;2023-03-23T14:53:18;12.37;;;3.23;;
14722;SDS011;7452;55.594;12.986;2023-03-23T14:55:48;10.47;;;3.50;;
14722;SDS011;7452;55.594;12.986;2023-03-23T14:58:17;10.97;;;3.27;;
14722;SDS011;7452;55.594;12.986;2023-03-23T15:00:46;10.13;;;3.40;;
14722;SDS011;7452;55.594;12.986;2023-03-23T15:03:19;8.87;;;2.80;;
14722;SDS011;7452;55.594;12.986;2023-03-23T15:05:50;11.10;;;3.43;;
14722;SDS011;7452;55.594;12.986;2023-03-23T15:08:20;11.57;;;2.90;;
14722;SDS011;7452;55.594;12.986;2023-03-23T15:11:03;11.63;;;3.13;;
14722;SDS011;7452;55.594;12.986;2023-03-23T15:13:33;11.67;;;3.50;;
14722;SDS011;7452;55.594;12.986;2023-03-23T15:16:03;12.00;;;3.30;;